Hayachinemaru — JG5386 — position and weather

sailwx.info

Track history (hours):
 
Tides and Currents Weather Stations Pressure Air Temp Water Temp Dewpoint Dewpoint Depression Visibility Wind Speed Wind Dir Waves Ship Positions

Hayachinemaru

Last reported at 2014-Jul-08 13:11 UTC. Time now 2014-Nov-23 22:32 UTC.
Position N 36°24' E 141°01'.
Warning: this ship's position is months out of date.

; draft 3.8 m.

Type: Tug. MMSI: 431100887.

Date/timePositionNaut miles runAvg speedWind from/ knotsBaromVisibWave heightAir tempDewpointWater temp
2014-Jul-08 13:11N 36°24' E 141°01'711.9
2014-Jul-08 12:33N 36°16' E 141°00'1212.1
2014-Jul-08 11:33N 36°04' E 140°58'1212.2
2014-Jul-08 10:33N 35°52' E 140°57'1212.2
2014-Jul-08 09:33N 35°40' E 140°55'1412.5
2014-Jul-08 08:25N 35°29' E 140°44'1212.9
2014-Jul-08 07:30N 35°20' E 140°34'2613.0
2014-Jul-08 05:29N 35°01' E 140°12'2310.8
2014-Jul-08 03:21N 34°56' E 139°45'911.9
2014-Jul-08 02:33N 35°06' E 139°44'1111.4
2014-Jul-08 01:33N 35°17' E 139°44'9 8.6
2014-Jul-08 00:34N 35°25' E 139°41'0 0.0
2014-Jul-07 23:33N 35°25' E 139°41'0 0.0
2014-Jul-07 22:34N 35°25' E 139°41'0 0.0
2014-Jul-07 21:34N 35°25' E 139°41'0 0.0
2014-Jul-07 20:34N 35°25' E 139°41'0 0.0
2014-Jul-07 19:34N 35°25' E 139°41'0 0.0
2014-Jul-07 18:34N 35°25' E 139°41'0 0.0
2014-Jul-07 17:33N 35°25' E 139°41'0 0.0
2014-Jul-07 16:34N 35°25' E 139°41'0 0.0
2014-Jul-07 15:33N 35°25' E 139°41'0 0.0
2014-Jul-07 14:33N 35°25' E 139°41'0 0.0
2014-Jul-07 13:34N 35°25' E 139°41'0 0.0
2014-Jul-07 12:34N 35°25' E 139°41'0 0.0
2014-Jul-07 11:33N 35°25' E 139°41'0 0.0
2014-Jul-07 10:34N 35°25' E 139°41'0 0.0
2014-Jul-07 09:34N 35°25' E 139°41'0 0.0
2014-Jul-07 08:33N 35°25' E 139°41'0 0.0
2014-Jul-07 07:34N 35°25' E 139°41'2 2.3
2014-Jul-07 06:34N 35°23' E 139°39'2 2.3
2014-Jul-07 05:33N 35°25' E 139°41'0 0.0
2014-Jul-07 04:33N 35°25' E 139°41'0 0.0
2014-Jul-07 03:33N 35°25' E 139°41'0 0.0
2014-Jul-07 02:33N 35°25' E 139°41'0 0.0
2014-Jul-07 01:33N 35°25' E 139°41'1 0.6
2014-Jul-07 00:33N 35°25' E 139°42'2 1.9
2014-Jul-06 23:33N 35°24' E 139°40'2 1.7
2014-Jul-06 22:33N 35°25' E 139°41'0 0.0
2014-Jul-06 21:33N 35°25' E 139°41'0 0.0
2014-Jul-06 20:33N 35°25' E 139°41'0 0.0
2014-Jul-06 19:33N 35°25' E 139°41'0 0.0
2014-Jul-06 18:33N 35°25' E 139°41'0 0.0
2014-Jul-06 17:33N 35°25' E 139°41'0 0.0
2014-Jul-06 16:33N 35°25' E 139°41'0 0.0
2014-Jul-06 15:33N 35°25' E 139°41'0 0.0
2014-Jul-06 14:33N 35°25' E 139°41'0 0.0
2014-Jul-06 13:33N 35°25' E 139°41'0 0.0
2014-Jul-06 12:33N 35°25' E 139°41'0 0.0
2014-Jul-06 11:33N 35°25' E 139°41'0 0.0
2014-Jul-06 10:33N 35°25' E 139°41'0 0.0
2014-Jul-06 09:33N 35°25' E 139°41'0 0.0
2014-Jul-06 08:33N 35°25' E 139°41'0 0.0
2014-Jul-06 07:33N 35°25' E 139°41'0 0.0
2014-Jul-06 06:33N 35°25' E 139°41'0 0.0
2014-Jul-06 05:33N 35°25' E 139°41'0 0.0
2014-Jul-06 04:33N 35°25' E 139°41'0 0.0
2014-Jul-06 03:33N 35°25' E 139°41'0 0.0
2014-Jul-06 02:33N 35°25' E 139°41'0 0.0
2014-Jul-06 01:33N 35°25' E 139°41'0 0.0
2014-Jul-06 00:33N 35°25' E 139°41'0 0.0
2014-Jul-05 23:33N 35°25' E 139°41'0 0.0
2014-Jul-05 22:33N 35°25' E 139°41'0 0.0
2014-Jul-05 21:33N 35°25' E 139°41'0 0.0
2014-Jul-05 20:33N 35°25' E 139°41'0 0.0
2014-Jul-05 19:33N 35°25' E 139°41'0 0.0
2014-Jul-05 18:33N 35°25' E 139°41'0 0.0
2014-Jul-05 17:33N 35°25' E 139°41'0 0.0
2014-Jul-05 16:33N 35°25' E 139°41'0 0.0
2014-Jul-05 15:33N 35°25' E 139°41'0 0.0
2014-Jul-05 14:33N 35°25' E 139°41'0 0.0
2014-Jul-05 13:33N 35°25' E 139°41'0 0.0
2014-Jul-05 12:33N 35°25' E 139°41'0 0.0
2014-Jul-05 11:33N 35°25' E 139°41'0 0.0
2014-Jul-05 10:33N 35°25' E 139°41'0 0.0
2014-Jul-05 09:33N 35°25' E 139°41'0 0.0
2014-Jul-05 08:33N 35°25' E 139°41'0 0.0
2014-Jul-05 07:33N 35°25' E 139°41'0 0.0
2014-Jul-05 06:33N 35°25' E 139°41'0 0.0
2014-Jul-05 05:33N 35°25' E 139°41'2 2.4
2014-Jul-05 04:33N 35°23' E 139°39'3 2.6
2014-Jul-05 03:33N 35°25' E 139°41'0 0.3
2014-Jul-05 02:33N 35°25' E 139°41'0 0.0
2014-Jul-05 01:33N 35°25' E 139°41'0 0.0
2014-Jul-05 00:34N 35°25' E 139°41'0 0.0
2014-Jul-04 23:33N 35°25' E 139°41'0 0.0
2014-Jul-04 22:33N 35°25' E 139°41'0 0.1
2014-Jul-04 21:33N 35°25' E 139°41'1 0.6
2014-Jul-04 20:34N 35°25' E 139°42'1 0.6
2014-Jul-04 19:33N 35°25' E 139°41'0 0.0
2014-Jul-04 18:33N 35°25' E 139°41'0 0.0
2014-Jul-04 17:33N 35°25' E 139°41'0 0.0
2014-Jul-04 16:33N 35°25' E 139°41'0 0.0
2014-Jul-04 15:33N 35°25' E 139°41'0 0.0
2014-Jul-04 14:33N 35°25' E 139°41'0 0.0
2014-Jul-04 13:33N 35°25' E 139°41'0 0.0
2014-Jul-04 12:33N 35°25' E 139°41'0 0.0
2014-Jul-04 11:33N 35°25' E 139°41'0 0.0
2014-Jul-04 10:33N 35°25' E 139°41'0 0.0
2014-Jul-04 09:33N 35°25' E 139°41'1 0.9
2014-Jul-04 08:33N 35°25' E 139°42'3 3.1
2014-Jul-04 07:33N 35°24' E 139°38'2 2.0
2014-Jul-04 06:33N 35°23' E 139°40'2 2.2
2014-Jul-04 05:33N 35°25' E 139°41'0 0.2
2014-Jul-04 04:34N 35°25' E 139°41'0 0.0
2014-Jul-04 03:34N 35°25' E 139°41'0 0.0
2014-Jul-04 02:33N 35°25' E 139°41'0 0.0
2014-Jul-04 01:34N 35°25' E 139°41'0 0.0
2014-Jul-04 00:34N 35°25' E 139°41'0 0.0
2014-Jul-03 23:33N 35°25' E 139°41'0 0.0
2014-Jul-03 22:33N 35°25' E 139°41'0 0.0
2014-Jul-03 21:33N 35°25' E 139°41'0 0.0
2014-Jul-03 20:33N 35°25' E 139°41'0 0.0
2014-Jul-03 19:33N 35°25' E 139°41'0 0.0
2014-Jul-03 18:33N 35°25' E 139°41'0 0.0
2014-Jul-03 17:33N 35°25' E 139°41'0 0.0
2014-Jul-03 16:33N 35°25' E 139°41'0 0.0
2014-Jul-03 15:33N 35°25' E 139°41'0 0.0
2014-Jul-03 14:33N 35°25' E 139°41'0 0.0
2014-Jul-03 13:33N 35°25' E 139°41'0 0.0
2014-Jul-03 12:33N 35°25' E 139°41'0 0.0
2014-Jul-03 11:33N 35°25' E 139°41'0 0.0
2014-Jul-03 10:33N 35°25' E 139°41'0 0.0
2014-Jul-03 09:33N 35°25' E 139°41'0 0.0
2014-Jul-03 08:33N 35°25' E 139°41'0 0.0
2014-Jul-03 07:33N 35°25' E 139°41'2 1.6
2014-Jul-03 06:33N 35°23' E 139°41'2 2.1
2014-Jul-03 05:33N 35°24' E 139°38'0 0.0
2014-Jul-03 04:33N 35°24' E 139°38'0 0.0
2014-Jul-03 03:33N 35°24' E 139°38'0 0.0
2014-Jul-03 02:33N 35°24' E 139°38'0 0.0
2014-Jul-03 01:33N 35°24' E 139°38'0 0.0
2014-Jul-03 00:33N 35°24' E 139°38'0 0.0
2014-Jul-02 23:33N 35°24' E 139°38'0 0.0
2014-Jul-02 22:33N 35°24' E 139°38'0 0.1
2014-Jul-02 21:33N 35°24' E 139°38'3 2.5
2014-Jul-02 20:33N 35°25' E 139°41'0 0.0
2014-Jul-02 19:33N 35°25' E 139°41'0 0.0
2014-Jul-02 18:33N 35°25' E 139°41'0 0.0
2014-Jul-02 17:33N 35°25' E 139°41'0 0.0
2014-Jul-02 16:33N 35°25' E 139°41'0 0.0
2014-Jul-02 15:33N 35°25' E 139°41'0 0.0
2014-Jul-02 14:33N 35°25' E 139°41'0 0.0
2014-Jul-02 13:33N 35°25' E 139°41'0 0.0
2014-Jul-02 12:33N 35°25' E 139°41'0 0.0
2014-Jul-02 11:33N 35°25' E 139°41'0 0.0
2014-Jul-02 10:33N 35°25' E 139°41'0 0.0
2014-Jul-02 09:33N 35°25' E 139°41'0 0.0
2014-Jul-02 08:33N 35°25' E 139°41'0 0.0
2014-Jul-02 07:33N 35°25' E 139°41'0 0.0
2014-Jul-02 06:33N 35°25' E 139°41'1111.0
2014-Jul-02 05:33N 35°15' E 139°45'1212.5
2014-Jul-02 04:33N 35°02' E 139°44'67 9.5
2014-Jul-01 21:31N 35°39' E 140°53'1712.6
2014-Jul-01 20:09N 35°56' E 140°57'  
Track history (hours):
 
Tides and Currents Weather Stations Pressure Air Temp Water Temp Dewpoint Dewpoint Depression Visibility Wind Speed Wind Dir Waves Ship Positions

Hayachinemaru

Last reported at 2014-Jul-08 13:11 UTC. Time now 2014-Nov-23 22:32 UTC.
Position N 36°24' E 141°01'.
Warning: this ship's position is months out of date.

; draft 3.8 m.

Type: Tug. MMSI: 431100887.

Date/timePositionNaut miles runAvg speedWind from/ knotsBaromVisibWave heightAir tempDewpointWater temp
2014-Jul-08 13:11N 36°24' E 141°01'711.9
2014-Jul-08 12:33N 36°16' E 141°00'1212.1
2014-Jul-08 11:33N 36°04' E 140°58'1212.2
2014-Jul-08 10:33N 35°52' E 140°57'1212.2
2014-Jul-08 09:33N 35°40' E 140°55'1412.5
2014-Jul-08 08:25N 35°29' E 140°44'1212.9
2014-Jul-08 07:30N 35°20' E 140°34'2613.0
2014-Jul-08 05:29N 35°01' E 140°12'2310.8
2014-Jul-08 03:21N 34°56' E 139°45'911.9
2014-Jul-08 02:33N 35°06' E 139°44'1111.4
2014-Jul-08 01:33N 35°17' E 139°44'9 8.6
2014-Jul-08 00:34N 35°25' E 139°41'0 0.0
2014-Jul-07 23:33N 35°25' E 139°41'0 0.0
2014-Jul-07 22:34N 35°25' E 139°41'0 0.0
2014-Jul-07 21:34N 35°25' E 139°41'0 0.0
2014-Jul-07 20:34N 35°25' E 139°41'0 0.0
2014-Jul-07 19:34N 35°25' E 139°41'0 0.0
2014-Jul-07 18:34N 35°25' E 139°41'0 0.0
2014-Jul-07 17:33N 35°25' E 139°41'0 0.0
2014-Jul-07 16:34N 35°25' E 139°41'0 0.0
2014-Jul-07 15:33N 35°25' E 139°41'0 0.0
2014-Jul-07 14:33N 35°25' E 139°41'0 0.0
2014-Jul-07 13:34N 35°25' E 139°41'0 0.0
2014-Jul-07 12:34N 35°25' E 139°41'0 0.0
2014-Jul-07 11:33N 35°25' E 139°41'0 0.0
2014-Jul-07 10:34N 35°25' E 139°41'0 0.0
2014-Jul-07 09:34N 35°25' E 139°41'0 0.0
2014-Jul-07 08:33N 35°25' E 139°41'0 0.0
2014-Jul-07 07:34N 35°25' E 139°41'2 2.3
2014-Jul-07 06:34N 35°23' E 139°39'2 2.3
2014-Jul-07 05:33N 35°25' E 139°41'0 0.0
2014-Jul-07 04:33N 35°25' E 139°41'0 0.0
2014-Jul-07 03:33N 35°25' E 139°41'0 0.0
2014-Jul-07 02:33N 35°25' E 139°41'0 0.0
2014-Jul-07 01:33N 35°25' E 139°41'1 0.6
2014-Jul-07 00:33N 35°25' E 139°42'2 1.9
2014-Jul-06 23:33N 35°24' E 139°40'2 1.7
2014-Jul-06 22:33N 35°25' E 139°41'0 0.0
2014-Jul-06 21:33N 35°25' E 139°41'0 0.0
2014-Jul-06 20:33N 35°25' E 139°41'0 0.0
2014-Jul-06 19:33N 35°25' E 139°41'0 0.0
2014-Jul-06 18:33N 35°25' E 139°41'0 0.0
2014-Jul-06 17:33N 35°25' E 139°41'0 0.0
2014-Jul-06 16:33N 35°25' E 139°41'0 0.0
2014-Jul-06 15:33N 35°25' E 139°41'0 0.0
2014-Jul-06 14:33N 35°25' E 139°41'0 0.0
2014-Jul-06 13:33N 35°25' E 139°41'0 0.0
2014-Jul-06 12:33N 35°25' E 139°41'0 0.0
2014-Jul-06 11:33N 35°25' E 139°41'0 0.0
2014-Jul-06 10:33N 35°25' E 139°41'0 0.0
2014-Jul-06 09:33N 35°25' E 139°41'0 0.0
2014-Jul-06 08:33N 35°25' E 139°41'0 0.0
2014-Jul-06 07:33N 35°25' E 139°41'0 0.0
2014-Jul-06 06:33N 35°25' E 139°41'0 0.0
2014-Jul-06 05:33N 35°25' E 139°41'0 0.0
2014-Jul-06 04:33N 35°25' E 139°41'0 0.0
2014-Jul-06 03:33N 35°25' E 139°41'0 0.0
2014-Jul-06 02:33N 35°25' E 139°41'0 0.0
2014-Jul-06 01:33N 35°25' E 139°41'0 0.0
2014-Jul-06 00:33N 35°25' E 139°41'0 0.0
2014-Jul-05 23:33N 35°25' E 139°41'0 0.0
2014-Jul-05 22:33N 35°25' E 139°41'0 0.0
2014-Jul-05 21:33N 35°25' E 139°41'0 0.0
2014-Jul-05 20:33N 35°25' E 139°41'0 0.0
2014-Jul-05 19:33N 35°25' E 139°41'0 0.0
2014-Jul-05 18:33N 35°25' E 139°41'0 0.0
2014-Jul-05 17:33N 35°25' E 139°41'0 0.0
2014-Jul-05 16:33N 35°25' E 139°41'0 0.0
2014-Jul-05 15:33N 35°25' E 139°41'0 0.0
2014-Jul-05 14:33N 35°25' E 139°41'0 0.0
2014-Jul-05 13:33N 35°25' E 139°41'0 0.0
2014-Jul-05 12:33N 35°25' E 139°41'0 0.0
2014-Jul-05 11:33N 35°25' E 139°41'0 0.0
2014-Jul-05 10:33N 35°25' E 139°41'0 0.0
2014-Jul-05 09:33N 35°25' E 139°41'0 0.0
2014-Jul-05 08:33N 35°25' E 139°41'0 0.0
2014-Jul-05 07:33N 35°25' E 139°41'0 0.0
2014-Jul-05 06:33N 35°25' E 139°41'0 0.0
2014-Jul-05 05:33N 35°25' E 139°41'2 2.4
2014-Jul-05 04:33N 35°23' E 139°39'3 2.6
2014-Jul-05 03:33N 35°25' E 139°41'0 0.3
2014-Jul-05 02:33N 35°25' E 139°41'0 0.0
2014-Jul-05 01:33N 35°25' E 139°41'0 0.0
2014-Jul-05 00:34N 35°25' E 139°41'0 0.0
2014-Jul-04 23:33N 35°25' E 139°41'0 0.0
2014-Jul-04 22:33N 35°25' E 139°41'0 0.1
2014-Jul-04 21:33N 35°25' E 139°41'1 0.6
2014-Jul-04 20:34N 35°25' E 139°42'1 0.6
2014-Jul-04 19:33N 35°25' E 139°41'0 0.0
2014-Jul-04 18:33N 35°25' E 139°41'0 0.0
2014-Jul-04 17:33N 35°25' E 139°41'0 0.0
2014-Jul-04 16:33N 35°25' E 139°41'0 0.0
2014-Jul-04 15:33N 35°25' E 139°41'0 0.0
2014-Jul-04 14:33N 35°25' E 139°41'0 0.0
2014-Jul-04 13:33N 35°25' E 139°41'0 0.0
2014-Jul-04 12:33N 35°25' E 139°41'0 0.0
2014-Jul-04 11:33N 35°25' E 139°41'0 0.0
2014-Jul-04 10:33N 35°25' E 139°41'0 0.0
2014-Jul-04 09:33N 35°25' E 139°41'1 0.9
2014-Jul-04 08:33N 35°25' E 139°42'3 3.1
2014-Jul-04 07:33N 35°24' E 139°38'2 2.0
2014-Jul-04 06:33N 35°23' E 139°40'2 2.2
2014-Jul-04 05:33N 35°25' E 139°41'0 0.2
2014-Jul-04 04:34N 35°25' E 139°41'0 0.0
2014-Jul-04 03:34N 35°25' E 139°41'0 0.0
2014-Jul-04 02:33N 35°25' E 139°41'0 0.0
2014-Jul-04 01:34N 35°25' E 139°41'0 0.0
2014-Jul-04 00:34N 35°25' E 139°41'0 0.0
2014-Jul-03 23:33N 35°25' E 139°41'0 0.0
2014-Jul-03 22:33N 35°25' E 139°41'0 0.0
2014-Jul-03 21:33N 35°25' E 139°41'0 0.0
2014-Jul-03 20:33N 35°25' E 139°41'0 0.0
2014-Jul-03 19:33N 35°25' E 139°41'0 0.0
2014-Jul-03 18:33N 35°25' E 139°41'0 0.0
2014-Jul-03 17:33N 35°25' E 139°41'0 0.0
2014-Jul-03 16:33N 35°25' E 139°41'0 0.0
2014-Jul-03 15:33N 35°25' E 139°41'0 0.0
2014-Jul-03 14:33N 35°25' E 139°41'0 0.0
2014-Jul-03 13:33N 35°25' E 139°41'0 0.0
2014-Jul-03 12:33N 35°25' E 139°41'0 0.0
2014-Jul-03 11:33N 35°25' E 139°41'0 0.0
2014-Jul-03 10:33N 35°25' E 139°41'0 0.0
2014-Jul-03 09:33N 35°25' E 139°41'0 0.0
2014-Jul-03 08:33N 35°25' E 139°41'0 0.0
2014-Jul-03 07:33N 35°25' E 139°41'2 1.6
2014-Jul-03 06:33N 35°23' E 139°41'2 2.1
2014-Jul-03 05:33N 35°24' E 139°38'0 0.0
2014-Jul-03 04:33N 35°24' E 139°38'0 0.0
2014-Jul-03 03:33N 35°24' E 139°38'0 0.0
2014-Jul-03 02:33N 35°24' E 139°38'0 0.0
2014-Jul-03 01:33N 35°24' E 139°38'0 0.0
2014-Jul-03 00:33N 35°24' E 139°38'0 0.0
2014-Jul-02 23:33N 35°24' E 139°38'0 0.0
2014-Jul-02 22:33N 35°24' E 139°38'0 0.1
2014-Jul-02 21:33N 35°24' E 139°38'3 2.5
2014-Jul-02 20:33N 35°25' E 139°41'0 0.0
2014-Jul-02 19:33N 35°25' E 139°41'0 0.0
2014-Jul-02 18:33N 35°25' E 139°41'0 0.0
2014-Jul-02 17:33N 35°25' E 139°41'0 0.0
2014-Jul-02 16:33N 35°25' E 139°41'0 0.0
2014-Jul-02 15:33N 35°25' E 139°41'0 0.0
2014-Jul-02 14:33N 35°25' E 139°41'0 0.0
2014-Jul-02 13:33N 35°25' E 139°41'0 0.0
2014-Jul-02 12:33N 35°25' E 139°41'0 0.0
2014-Jul-02 11:33N 35°25' E 139°41'0 0.0
2014-Jul-02 10:33N 35°25' E 139°41'0 0.0
2014-Jul-02 09:33N 35°25' E 139°41'0 0.0
2014-Jul-02 08:33N 35°25' E 139°41'0 0.0
2014-Jul-02 07:33N 35°25' E 139°41'0 0.0
2014-Jul-02 06:33N 35°25' E 139°41'1111.0
2014-Jul-02 05:33N 35°15' E 139°45'1212.5
2014-Jul-02 04:33N 35°02' E 139°44'67 9.5
2014-Jul-01 21:31N 35°39' E 140°53'1712.6
2014-Jul-01 20:09N 35°56' E 140°57'  

Dump ship's entire track history